Appledore, United Kingdom
Current Conditions -  °F | °C
As of 7:50 PM on Sunday 21 Dec 2014 (Local Time) from EGTE Reporting Station
Broken Clouds Broken Clouds  
Wind Chill: 12°   Ceiling: 2000
Heat Index: 12°   Visibility: 6mi
Dew Point:   Wind: 9mph
Humidity: 82%   Direction: 230°SW
Pressure: 30.27"   Gusts: NA
Location:  51.05°N, 4.2°W
Report Text: EGTE 211950Z 23008KT 210V280 9999 BKN020 12/09 Q1025
Loading
Personal Weather Stations






























Interactive Weather Map New forecast layout! Learn more

10-Day Weather Forecast

Advertisements
Track Severe Weather on mobile